Mega Smeralda — ICIU — position and weather

sailwx.info

Track history (hours):
 
Tides and Currents Weather Stations Pressure Air Temp Water Temp Dewpoint Dewpoint Depression Visibility Wind Speed Wind Dir Waves Ship Positions

Mega Smeralda

Last reported at 2015-Apr-19 18:33 UTC. Time now 2015-Apr-19 19:13 UTC.
Position N 43°07' E 005°56'.

Length 171 m; draft 6.4 m.

Type: Passenger vessel. MMSI: 247228600.

Date/timePositionNaut miles runAvg speedWind from/ knotsBaromVisibWave heightAir tempDewpointWater temp
2015-Apr-19 18:33N 43°07' E 005°56'0 0.0
2015-Apr-19 17:33N 43°07' E 005°56'0 0.0
2015-Apr-19 16:33N 43°07' E 005°56'0 0.0
2015-Apr-19 15:33N 43°07' E 005°56'0 0.0
2015-Apr-19 14:33N 43°07' E 005°56'0 0.0
2015-Apr-19 13:33N 43°07' E 005°56'0 0.0
2015-Apr-19 12:33N 43°07' E 005°56'0 0.0
2015-Apr-19 11:33N 43°07' E 005°56'0 0.0
2015-Apr-19 10:33N 43°07' E 005°56'0 0.0
2015-Apr-19 09:33N 43°07' E 005°56'0 0.0
2015-Apr-19 08:33N 43°07' E 005°56'0 0.0
2015-Apr-19 07:33N 43°07' E 005°56'0 0.0
2015-Apr-19 06:33N 43°07' E 005°56'4 4.1
2015-Apr-19 05:32N 43°04' E 005°59'12615.2
2015-Apr-18 21:15N 43°02' E 008°51'1115.9
2015-Apr-18 20:33N 43°03' E 009°06'1615.5
2015-Apr-18 19:33N 43°03' E 009°27'17 4.2
2015-Apr-18 15:26N 42°52' E 009°46'1516.8
2015-Apr-18 14:33N 43°02' E 009°59'1717.3
2015-Apr-18 13:33N 43°19' E 010°06'1515.1
2015-Apr-18 12:33N 43°32' E 010°16'1 1.5
2015-Apr-18 11:33N 43°33' E 010°18'0 0.3
2015-Apr-18 10:33N 43°33' E 010°18'1413.8
2015-Apr-18 09:33N 43°21' E 010°08'1716.8
2015-Apr-18 08:32N 43°05' E 009°60'17413.4
2015-Apr-17 19:31N 43°02' E 006°02'7 6.9
2015-Apr-17 18:34N 43°07' E 005°56'0 0.0
2015-Apr-17 17:34N 43°07' E 005°56'0 0.0
2015-Apr-17 16:34N 43°07' E 005°56'0 0.0
2015-Apr-17 15:34N 43°07' E 005°56'0 0.0
2015-Apr-17 14:34N 43°07' E 005°56'0 0.0
2015-Apr-17 13:34N 43°07' E 005°56'0 0.0
2015-Apr-17 12:34N 43°07' E 005°56'0 0.2
2015-Apr-17 11:33N 43°07' E 005°56'0 0.0
2015-Apr-17 10:34N 43°07' E 005°56'0 0.0
2015-Apr-17 09:34N 43°07' E 005°56'0 0.0
2015-Apr-17 08:34N 43°07' E 005°56'0 0.0
2015-Apr-17 07:33N 43°07' E 005°56'0 0.0
2015-Apr-17 06:34N 43°07' E 005°56'0 0.1
2015-Apr-17 05:34N 43°07' E 005°56'7 6.2
2015-Apr-17 04:30N 43°02' E 006°02'1414.5
2015-Apr-17 03:32N 42°56' E 006°19'1616.3
2015-Apr-17 02:33N 42°57' E 006°41'1717.0
2015-Apr-17 01:33N 42°58' E 007°04'1817.6
2015-Apr-17 00:33N 42°60' E 007°28'1818.4
2015-Apr-16 23:33N 43°01' E 007°53'1818.2
2015-Apr-16 22:34N 43°01' E 008°18'1818.0
2015-Apr-16 21:33N 43°02' E 008°42'1818.1
2015-Apr-16 20:33N 43°03' E 009°07'1817.7
2015-Apr-16 19:33N 42°60' E 009°31'18 5.5
2015-Apr-16 16:19N 42°42' E 009°28'1418.3
2015-Apr-16 15:34N 42°51' E 009°43'1716.8
2015-Apr-16 14:34N 43°03' E 009°59'1716.8
2015-Apr-16 13:34N 43°19' E 010°06'1615.7
2015-Apr-16 12:33N 43°32' E 010°17'1 1.0
2015-Apr-16 11:33N 43°33' E 010°18'0 0.0
2015-Apr-16 10:33N 43°33' E 010°18'0 0.0
2015-Apr-16 09:33N 43°33' E 010°18'0 0.0
2015-Apr-16 08:33N 43°33' E 010°18'0 0.0
2015-Apr-16 07:33N 43°33' E 010°18'0 0.0
2015-Apr-16 06:33N 43°33' E 010°18'0 0.0
2015-Apr-16 05:33N 43°33' E 010°18'0 0.0
2015-Apr-16 04:33N 43°33' E 010°18'0 0.0
2015-Apr-16 03:33N 43°33' E 010°18'0 0.0
2015-Apr-16 02:33N 43°33' E 010°18'0 0.0
2015-Apr-16 01:33N 43°33' E 010°18'0 0.0
2015-Apr-16 00:33N 43°33' E 010°18'0 0.0
2015-Apr-15 23:33N 43°33' E 010°18'0 0.0
2015-Apr-15 22:33N 43°33' E 010°18'0 0.0
2015-Apr-15 21:33N 43°33' E 010°18'0 0.0
2015-Apr-15 20:33N 43°33' E 010°18'0 0.0
2015-Apr-15 19:33N 43°33' E 010°18'0 0.0
2015-Apr-15 18:33N 43°33' E 010°18'0 0.0
2015-Apr-15 17:33N 43°33' E 010°18'7 7.4
2015-Apr-15 16:33N 43°27' E 010°13'5 5.5
2015-Apr-15 15:33N 43°27' E 010°05'1010.3
2015-Apr-15 14:33N 43°17' E 010°09'1818.1
2015-Apr-15 13:33N 43°33' E 009°58'1515.1
2015-Apr-15 12:33N 43°45' E 009°47'1514.9
2015-Apr-15 11:33N 43°57' E 009°33'1414.4
2015-Apr-15 10:34N 44°06' E 009°18'1212.2
2015-Apr-15 09:33N 44°15' E 009°06'1010.0
2015-Apr-15 08:33N 44°22' E 008°57'2 2.0
2015-Apr-15 07:31N 44°24' E 008°56'0 0.0
2015-Apr-15 06:33N 44°24' E 008°56'0 0.0
2015-Apr-15 05:33N 44°24' E 008°56'0 0.0
2015-Apr-15 04:33N 44°24' E 008°56'0 0.0
2015-Apr-15 03:33N 44°24' E 008°56'0 0.0
2015-Apr-15 02:30N 44°24' E 008°56'0 0.0
2015-Apr-15 01:33N 44°24' E 008°56'0 0.0
2015-Apr-15 00:30N 44°24' E 008°56'0 0.0
2015-Apr-14 23:30N 44°24' E 008°56'0 0.0
2015-Apr-14 22:24N 44°24' E 008°56'0 0.0
2015-Apr-14 21:33N 44°24' E 008°56'0 0.0
2015-Apr-14 20:27N 44°24' E 008°56'0 0.0
2015-Apr-14 19:27N 44°24' E 008°56'0 0.0
2015-Apr-14 18:33N 44°24' E 008°56'0 0.0
2015-Apr-14 17:30N 44°24' E 008°56'0 0.0
2015-Apr-14 16:33N 44°24' E 008°56'0 0.0
2015-Apr-14 15:30N 44°24' E 008°56'  
2015-Apr-10 16:10N 44°24' E 008°56'0 0.0
2015-Apr-10 15:28N 44°24' E 008°56'0 0.0
2015-Apr-10 14:28N 44°24' E 008°56'0 0.0
2015-Apr-10 13:28N 44°24' E 008°56'0 0.0
2015-Apr-10 12:28N 44°24' E 008°56'0 0.0
2015-Apr-10 11:28N 44°24' E 008°56'0 0.0
2015-Apr-10 10:31N 44°24' E 008°56'0 0.0
2015-Apr-10 09:31N 44°24' E 008°56'0 0.0
2015-Apr-10 08:28N 44°24' E 008°56'0 0.0
2015-Apr-10 07:28N 44°24' E 008°56'  
Track history (hours):
 
Tides and Currents Weather Stations Pressure Air Temp Water Temp Dewpoint Dewpoint Depression Visibility Wind Speed Wind Dir Waves Ship Positions

Mega Smeralda

Last reported at 2015-Apr-19 18:33 UTC. Time now 2015-Apr-19 19:13 UTC.
Position N 43°07' E 005°56'.

Length 171 m; draft 6.4 m.

Type: Passenger vessel. MMSI: 247228600.

Date/timePositionNaut miles runAvg speedWind from/ knotsBaromVisibWave heightAir tempDewpointWater temp
2015-Apr-19 18:33N 43°07' E 005°56'0 0.0
2015-Apr-19 17:33N 43°07' E 005°56'0 0.0
2015-Apr-19 16:33N 43°07' E 005°56'0 0.0
2015-Apr-19 15:33N 43°07' E 005°56'0 0.0
2015-Apr-19 14:33N 43°07' E 005°56'0 0.0
2015-Apr-19 13:33N 43°07' E 005°56'0 0.0
2015-Apr-19 12:33N 43°07' E 005°56'0 0.0
2015-Apr-19 11:33N 43°07' E 005°56'0 0.0
2015-Apr-19 10:33N 43°07' E 005°56'0 0.0
2015-Apr-19 09:33N 43°07' E 005°56'0 0.0
2015-Apr-19 08:33N 43°07' E 005°56'0 0.0
2015-Apr-19 07:33N 43°07' E 005°56'0 0.0
2015-Apr-19 06:33N 43°07' E 005°56'4 4.1
2015-Apr-19 05:32N 43°04' E 005°59'12615.2
2015-Apr-18 21:15N 43°02' E 008°51'1115.9
2015-Apr-18 20:33N 43°03' E 009°06'1615.5
2015-Apr-18 19:33N 43°03' E 009°27'17 4.2
2015-Apr-18 15:26N 42°52' E 009°46'1516.8
2015-Apr-18 14:33N 43°02' E 009°59'1717.3
2015-Apr-18 13:33N 43°19' E 010°06'1515.1
2015-Apr-18 12:33N 43°32' E 010°16'1 1.5
2015-Apr-18 11:33N 43°33' E 010°18'0 0.3
2015-Apr-18 10:33N 43°33' E 010°18'1413.8
2015-Apr-18 09:33N 43°21' E 010°08'1716.8
2015-Apr-18 08:32N 43°05' E 009°60'17413.4
2015-Apr-17 19:31N 43°02' E 006°02'7 6.9
2015-Apr-17 18:34N 43°07' E 005°56'0 0.0
2015-Apr-17 17:34N 43°07' E 005°56'0 0.0
2015-Apr-17 16:34N 43°07' E 005°56'0 0.0
2015-Apr-17 15:34N 43°07' E 005°56'0 0.0
2015-Apr-17 14:34N 43°07' E 005°56'0 0.0
2015-Apr-17 13:34N 43°07' E 005°56'0 0.0
2015-Apr-17 12:34N 43°07' E 005°56'0 0.2
2015-Apr-17 11:33N 43°07' E 005°56'0 0.0
2015-Apr-17 10:34N 43°07' E 005°56'0 0.0
2015-Apr-17 09:34N 43°07' E 005°56'0 0.0
2015-Apr-17 08:34N 43°07' E 005°56'0 0.0
2015-Apr-17 07:33N 43°07' E 005°56'0 0.0
2015-Apr-17 06:34N 43°07' E 005°56'0 0.1
2015-Apr-17 05:34N 43°07' E 005°56'7 6.2
2015-Apr-17 04:30N 43°02' E 006°02'1414.5
2015-Apr-17 03:32N 42°56' E 006°19'1616.3
2015-Apr-17 02:33N 42°57' E 006°41'1717.0
2015-Apr-17 01:33N 42°58' E 007°04'1817.6
2015-Apr-17 00:33N 42°60' E 007°28'1818.4
2015-Apr-16 23:33N 43°01' E 007°53'1818.2
2015-Apr-16 22:34N 43°01' E 008°18'1818.0
2015-Apr-16 21:33N 43°02' E 008°42'1818.1
2015-Apr-16 20:33N 43°03' E 009°07'1817.7
2015-Apr-16 19:33N 42°60' E 009°31'18 5.5
2015-Apr-16 16:19N 42°42' E 009°28'1418.3
2015-Apr-16 15:34N 42°51' E 009°43'1716.8
2015-Apr-16 14:34N 43°03' E 009°59'1716.8
2015-Apr-16 13:34N 43°19' E 010°06'1615.7
2015-Apr-16 12:33N 43°32' E 010°17'1 1.0
2015-Apr-16 11:33N 43°33' E 010°18'0 0.0
2015-Apr-16 10:33N 43°33' E 010°18'0 0.0
2015-Apr-16 09:33N 43°33' E 010°18'0 0.0
2015-Apr-16 08:33N 43°33' E 010°18'0 0.0
2015-Apr-16 07:33N 43°33' E 010°18'0 0.0
2015-Apr-16 06:33N 43°33' E 010°18'0 0.0
2015-Apr-16 05:33N 43°33' E 010°18'0 0.0
2015-Apr-16 04:33N 43°33' E 010°18'0 0.0
2015-Apr-16 03:33N 43°33' E 010°18'0 0.0
2015-Apr-16 02:33N 43°33' E 010°18'0 0.0
2015-Apr-16 01:33N 43°33' E 010°18'0 0.0
2015-Apr-16 00:33N 43°33' E 010°18'0 0.0
2015-Apr-15 23:33N 43°33' E 010°18'0 0.0
2015-Apr-15 22:33N 43°33' E 010°18'0 0.0
2015-Apr-15 21:33N 43°33' E 010°18'0 0.0
2015-Apr-15 20:33N 43°33' E 010°18'0 0.0
2015-Apr-15 19:33N 43°33' E 010°18'0 0.0
2015-Apr-15 18:33N 43°33' E 010°18'0 0.0
2015-Apr-15 17:33N 43°33' E 010°18'7 7.4
2015-Apr-15 16:33N 43°27' E 010°13'5 5.5
2015-Apr-15 15:33N 43°27' E 010°05'1010.3
2015-Apr-15 14:33N 43°17' E 010°09'1818.1
2015-Apr-15 13:33N 43°33' E 009°58'1515.1
2015-Apr-15 12:33N 43°45' E 009°47'1514.9
2015-Apr-15 11:33N 43°57' E 009°33'1414.4
2015-Apr-15 10:34N 44°06' E 009°18'1212.2
2015-Apr-15 09:33N 44°15' E 009°06'1010.0
2015-Apr-15 08:33N 44°22' E 008°57'2 2.0
2015-Apr-15 07:31N 44°24' E 008°56'0 0.0
2015-Apr-15 06:33N 44°24' E 008°56'0 0.0
2015-Apr-15 05:33N 44°24' E 008°56'0 0.0
2015-Apr-15 04:33N 44°24' E 008°56'0 0.0
2015-Apr-15 03:33N 44°24' E 008°56'0 0.0
2015-Apr-15 02:30N 44°24' E 008°56'0 0.0
2015-Apr-15 01:33N 44°24' E 008°56'0 0.0
2015-Apr-15 00:30N 44°24' E 008°56'0 0.0
2015-Apr-14 23:30N 44°24' E 008°56'0 0.0
2015-Apr-14 22:24N 44°24' E 008°56'0 0.0
2015-Apr-14 21:33N 44°24' E 008°56'0 0.0
2015-Apr-14 20:27N 44°24' E 008°56'0 0.0
2015-Apr-14 19:27N 44°24' E 008°56'0 0.0
2015-Apr-14 18:33N 44°24' E 008°56'0 0.0
2015-Apr-14 17:30N 44°24' E 008°56'0 0.0
2015-Apr-14 16:33N 44°24' E 008°56'0 0.0
2015-Apr-14 15:30N 44°24' E 008°56'  
2015-Apr-10 16:10N 44°24' E 008°56'0 0.0
2015-Apr-10 15:28N 44°24' E 008°56'0 0.0
2015-Apr-10 14:28N 44°24' E 008°56'0 0.0
2015-Apr-10 13:28N 44°24' E 008°56'0 0.0
2015-Apr-10 12:28N 44°24' E 008°56'0 0.0
2015-Apr-10 11:28N 44°24' E 008°56'0 0.0
2015-Apr-10 10:31N 44°24' E 008°56'0 0.0
2015-Apr-10 09:31N 44°24' E 008°56'0 0.0
2015-Apr-10 08:28N 44°24' E 008°56'0 0.0
2015-Apr-10 07:28N 44°24' E 008°56'  

Dump ship's entire track history